Time,TemperatureF,DewpointF,PressureIn,WindDirection,WindDirectionDegrees,WindSpeedMPH,WindSpeedGustMPH,Humidity,HourlyPrecipIn,Conditions,Clouds,dailyrainin,SoftwareType,DateUTC
2013-03-08 00:03:00,49.2,46.4,29.80,NNW,328,0.0,0.0,90,0.00,RA,,0.00,WeatherDisplay:10.37,2013-03-08 08:03:00,
2013-03-08 00:08:00,49.2,46.7,29.80,NNW,328,0.0,0.0,91,0.00,RA,,0.00,WeatherDisplay:10.37,2013-03-08 08:08:00,
2013-03-08 00:13:00,49.1,46.6,29.80,NNW,328,0.0,0.0,91,0.00,OVC,,0.00,WeatherDisplay:10.37,2013-03-08 08:13:00,
2013-03-08 00:18:00,49.1,46.6,29.80,NNW,328,0.0,0.0,91,0.00,OVC,,0.00,WeatherDisplay:10.37,2013-03-08 08:18:00,
2013-03-08 00:23:00,49.1,46.6,29.80,NNW,328,0.0,0.0,91,0.00,OVC,,0.00,WeatherDisplay:10.37,2013-03-08 08:23:00,
2013-03-08 00:28:00,49.2,46.7,29.79,NNW,328,1.2,0.0,91,0.00,OVC,,0.00,WeatherDisplay:10.37,2013-03-08 08:28:00,
2013-03-08 00:33:00,49.2,46.7,29.80,NNW,345,1.2,1.2,91,0.00,OVC,,0.00,WeatherDisplay:10.37,2013-03-08 08:33:00,
2013-03-08 00:38:00,49.1,46.6,29.80,NNW,345,0.0,0.0,91,0.00,OVC,,0.00,WeatherDisplay:10.37,2013-03-08 08:38:00,
2013-03-08 00:43:00,49.0,46.5,29.80,NNW,342,0.0,0.0,91,0.00,OVC,,0.00,WeatherDisplay:10.37,2013-03-08 08:43:00,
2013-03-08 00:48:00,48.9,46.4,29.79,NW,305,0.0,0.0,91,0.00,BKN,,0.00,WeatherDisplay:10.37,2013-03-08 08:48:00,
2013-03-08 00:53:00,48.9,46.7,29.79,NW,305,0.0,0.0,92,0.00,BKN,,0.00,WeatherDisplay:10.37,2013-03-08 08:53:00,
2013-03-08 00:58:00,48.8,46.6,29.79,NW,305,0.0,0.0,92,0.00,BKN,,0.00,WeatherDisplay:10.37,2013-03-08 08:58:00,
2013-03-08 01:03:00,48.8,46.6,29.80,WNW,302,0.0,0.0,92,0.00,BKN,,0.00,WeatherDisplay:10.37,2013-03-08 09:03:00,
2013-03-08 01:08:00,48.8,46.6,29.80,WNW,297,1.2,0.0,92,0.00,BKN,,0.00,WeatherDisplay:10.37,2013-03-08 09:08:00,
2013-03-08 01:13:00,48.8,46.9,29.79,NW,313,0.0,0.0,93,0.00,BKN,,0.00,WeatherDisplay:10.37,2013-03-08 09:13:00,
2013-03-08 01:18:00,48.8,46.9,29.79,West,278,0.0,0.0,93,0.00,OVC,,0.00,WeatherDisplay:10.37,2013-03-08 09:18:00,
2013-03-08 01:23:00,48.9,47.0,29.79,West,278,0.0,0.0,93,0.00,OVC,,0.00,WeatherDisplay:10.37,2013-03-08 09:23:00,
2013-03-08 01:28:00,48.9,47.0,29.79,West,264,1.2,1.2,93,0.00,OVC,,0.00,WeatherDisplay:10.37,2013-03-08 09:28:00,
2013-03-08 01:33:00,48.9,47.0,29.79,West,265,0.0,0.0,93,0.00,OVC,,0.00,WeatherDisplay:10.37,2013-03-08 09:33:00,
2013-03-08 01:38:00,48.9,47.0,29.79,WNW,284,0.0,0.0,93,0.00,OVC,,0.00,WeatherDisplay:10.37,2013-03-08 09:38:00,
2013-03-08 01:43:00,48.9,47.0,29.79,West,274,0.0,0.0,93,0.00,OVC,,0.00,WeatherDisplay:10.37,2013-03-08 09:43:00,
2013-03-08 01:48:00,48.8,46.9,29.79,SSW,201,0.0,0.0,93,0.00,OVC,,0.00,WeatherDisplay:10.37,2013-03-08 09:48:00,
2013-03-08 01:53:00,48.8,46.9,29.79,SSW,210,1.2,1.2,93,0.00,OVC,,0.00,WeatherDisplay:10.37,2013-03-08 09:53:00,
2013-03-08 01:58:00,48.7,46.8,29.79,South,183,1.2,1.2,93,0.00,OVC,,0.00,WeatherDisplay:10.37,2013-03-08 09:58:00,
2013-03-08 02:03:00,48.7,46.8,29.79,SSE,156,0.0,0.0,93,0.00,OVC,,0.00,WeatherDisplay:10.37,2013-03-08 10:03:00,
2013-03-08 02:08:00,48.6,46.7,29.79,WNW,294,2.3,2.3,93,0.01,RA,,0.01,WeatherDisplay:10.37,2013-03-08 10:08:00,
2013-03-08 02:13:00,48.7,46.8,29.79,WSW,257,3.5,3.5,93,0.01,RA,,0.01,WeatherDisplay:10.37,2013-03-08 10:13:00,
2013-03-08 02:18:00,48.6,46.7,29.79,WNW,297,1.2,1.2,93,0.01,OVC,,0.01,WeatherDisplay:10.37,2013-03-08 10:18:00,
2013-03-08 02:23:00,48.5,46.6,29.79,NW,319,3.0,3.0,93,0.02,RA,,0.02,WeatherDisplay:10.37,2013-03-08 10:23:00,
2013-03-08 02:28:00,47.9,45.4,29.79,NNE,32,2.3,2.3,91,0.02,RA,,0.02,WeatherDisplay:10.37,2013-03-08 10:28:00,
2013-03-08 02:33:00,47.5,45.3,29.78,WNW,293,3.5,3.5,92,0.02,OVC,,0.02,WeatherDisplay:10.37,2013-03-08 10:33:00,
2013-03-08 02:38:00,47.3,45.1,29.78,West,273,2.3,2.3,92,0.03,RA,,0.03,WeatherDisplay:10.37,2013-03-08 10:38:00,
2013-03-08 02:43:00,47.1,44.9,29.78,SE,139,1.2,1.2,92,0.03,RA,,0.03,WeatherDisplay:10.37,2013-03-08 10:43:00,
2013-03-08 02:48:00,46.9,44.7,29.78,West,281,3.5,3.5,92,0.04,RA,,0.04,WeatherDisplay:10.37,2013-03-08 10:48:00,
2013-03-08 02:53:00,46.7,44.5,29.78,WNW,288,3.5,3.5,92,0.04,RA,,0.04,WeatherDisplay:10.37,2013-03-08 10:53:00,
2013-03-08 02:58:00,46.4,44.2,29.78,NW,319,3.5,3.5,92,0.05,RA,,0.05,WeatherDisplay:10.37,2013-03-08 10:58:00,
2013-03-08 03:03:00,46.3,44.4,29.78,SW,221,1.2,1.2,93,0.05,RA,,0.05,WeatherDisplay:10.37,2013-03-08 11:03:00,
2013-03-08 03:08:00,46.2,44.3,29.78,WSW,246,3.5,3.5,93,0.04,OVC,,0.05,WeatherDisplay:10.37,2013-03-08 11:08:00,
2013-03-08 03:13:00,46.1,44.2,29.77,SE,139,2.3,2.3,93,0.04,OVC,,0.05,WeatherDisplay:10.37,2013-03-08 11:13:00,
2013-03-08 03:18:00,46.0,44.1,29.77,NW,313,2.3,2.3,93,0.05,RA,,0.06,WeatherDisplay:10.37,2013-03-08 11:18:00,
2013-03-08 03:23:00,45.8,43.6,29.78,East,84,2.3,2.3,92,0.04,RA,,0.06,WeatherDisplay:10.37,2013-03-08 11:23:00,
2013-03-08 03:28:00,45.7,43.5,29.77,ENE,67,4.6,4.6,92,0.04,OVC,,0.06,WeatherDisplay:10.37,2013-03-08 11:28:00,
2013-03-08 03:33:00,45.6,43.4,29.78,ESE,120,3.5,3.5,92,0.04,OVC,,0.06,WeatherDisplay:10.37,2013-03-08 11:33:00,
2013-03-08 03:38:00,45.4,43.2,29.77,SSW,198,3.5,3.5,92,0.03,OVC,,0.06,WeatherDisplay:10.37,2013-03-08 11:38:00,
2013-03-08 03:43:00,45.3,43.4,29.78,West,273,2.3,2.3,93,0.04,RA,,0.07,WeatherDisplay:10.37,2013-03-08 11:43:00,
2013-03-08 03:48:00,45.3,43.4,29.78,South,188,1.2,1.2,93,0.03,RA,,0.07,WeatherDisplay:10.37,2013-03-08 11:48:00,
2013-03-08 03:53:00,45.1,43.2,29.78,SSW,198,1.2,1.2,93,0.04,RA,,0.08,WeatherDisplay:10.37,2013-03-08 11:53:00,
2013-03-08 03:58:00,45.0,43.1,29.78,SSW,212,1.2,0.0,93,0.03,RA,,0.08,WeatherDisplay:10.37,2013-03-08 11:58:00,
2013-03-08 04:03:00,44.9,43.0,29.78,South,180,3.5,3.5,93,0.03,OVC,,0.08,WeatherDisplay:10.37,2013-03-08 12:03:00,
2013-03-08 04:08:00,44.9,43.0,29.78,North,352,3.5,3.5,93,0.04,RA,,0.09,WeatherDisplay:10.37,2013-03-08 12:08:00,
2013-03-08 04:13:00,44.8,42.9,29.78,West,281,1.2,0.0,93,0.04,RA,,0.09,WeatherDisplay:10.37,2013-03-08 12:13:00,
2013-03-08 04:18:00,44.8,43.2,29.78,West,281,3.5,3.5,94,0.04,RA,,0.10,WeatherDisplay:10.37,2013-03-08 12:18:00,
2013-03-08 04:23:00,44.8,43.2,29.78,SSW,212,2.3,2.3,94,0.05,RA,,0.11,WeatherDisplay:10.37,2013-03-08 12:23:00,
2013-03-08 04:28:00,44.8,43.2,29.79,SE,139,1.0,1.0,94,0.05,RA,,0.11,WeatherDisplay:10.37,2013-03-08 12:28:00,
2013-03-08 04:33:00,44.8,43.2,29.79,SW,226,1.2,1.2,94,0.06,RA,,0.12,WeatherDisplay:10.37,2013-03-08 12:33:00,
2013-03-08 04:38:00,44.7,43.1,29.79,SW,232,1.2,1.2,94,0.06,RA,,0.12,WeatherDisplay:10.37,2013-03-08 12:38:00,
2013-03-08 04:43:00,44.7,43.1,29.79,NW,305,1.2,1.2,94,0.06,RA,,0.13,WeatherDisplay:10.37,2013-03-08 12:43:00,
2013-03-08 04:48:00,44.7,43.1,29.79,SSE,163,0.0,0.0,94,0.06,RA,,0.13,WeatherDisplay:10.37,2013-03-08 12:48:00,
2013-03-08 04:53:00,44.6,43.0,29.79,SSW,212,1.2,1.2,94,0.05,OVC,,0.13,WeatherDisplay:10.37,2013-03-08 12:53:00,
2013-03-08 04:58:00,44.6,43.0,29.80,SSW,207,2.3,2.3,94,0.06,RA,,0.14,WeatherDisplay:10.37,2013-03-08 12:58:00,
2013-03-08 05:03:00,44.6,43.0,29.80,ESE,109,2.3,0.0,94,0.07,RA,,0.15,WeatherDisplay:10.37,2013-03-08 13:03:00,
2013-03-08 05:08:00,44.5,42.9,29.80,SW,215,1.2,0.0,94,0.07,RA,,0.16,WeatherDisplay:10.37,2013-03-08 13:08:00,
2013-03-08 05:13:00,44.5,42.9,29.80,SW,215,0.0,0.0,94,0.09,RA,,0.18,WeatherDisplay:10.37,2013-03-08 13:13:00,
2013-03-08 05:18:00,44.6,43.0,29.81,SW,215,1.2,0.0,94,0.09,RA,,0.19,WeatherDisplay:10.37,2013-03-08 13:18:00,
2013-03-08 05:23:00,44.7,43.4,29.81,SE,125,1.2,1.2,95,0.09,RA,,0.20,WeatherDisplay:10.37,2013-03-08 13:23:00,
2013-03-08 05:28:00,44.7,43.4,29.81,SE,129,0.0,0.0,95,0.10,RA,,0.21,WeatherDisplay:10.37,2013-03-08 13:28:00,
2013-03-08 05:33:00,44.7,43.4,29.82,ESE,122,0.0,0.0,95,0.10,RA,,0.23,WeatherDisplay:10.37,2013-03-08 13:33:00,
2013-03-08 05:38:00,44.7,43.4,29.82,ESE,122,1.2,0.0,95,0.12,RA,,0.24,WeatherDisplay:10.37,2013-03-08 13:38:00,
2013-03-08 05:43:00,44.7,43.4,29.82,SE,146,0.0,0.0,95,0.13,RA,,0.26,WeatherDisplay:10.37,2013-03-08 13:43:00,
2013-03-08 05:48:00,44.7,43.4,29.82,SE,134,1.2,1.2,95,0.15,RA,,0.28,WeatherDisplay:10.37,2013-03-08 13:48:00,
2013-03-08 05:53:00,44.7,43.4,29.83,SE,135,2.3,2.3,95,0.17,RA,,0.30,WeatherDisplay:10.37,2013-03-08 13:53:00,
2013-03-08 05:58:00,44.6,43.3,29.83,ESE,122,1.2,1.2,95,0.18,RA,,0.32,WeatherDisplay:10.37,2013-03-08 13:58:00,
2013-03-08 06:03:00,44.5,43.2,29.83,ESE,120,1.2,1.2,95,0.18,RA,,0.33,WeatherDisplay:10.37,2013-03-08 14:03:00,
2013-03-08 06:08:00,44.5,43.2,29.83,ESE,108,0.0,0.0,95,0.18,RA,,0.34,WeatherDisplay:10.37,2013-03-08 14:08:00,
2013-03-08 06:13:00,44.5,43.2,29.83,SSE,150,1.2,1.2,95,0.17,RA,,0.35,WeatherDisplay:10.37,2013-03-08 14:13:00,
2013-03-08 06:18:00,44.5,43.2,29.83,SE,145,1.2,0.0,95,0.16,RA,,0.36,WeatherDisplay:10.37,2013-03-08 14:18:00,
2013-03-08 06:23:00,44.4,43.1,29.83,ESE,122,2.3,2.3,95,0.17,RA,,0.37,WeatherDisplay:10.37,2013-03-08 14:23:00,
2013-03-08 06:28:00,44.4,43.1,29.83,SE,131,1.2,1.2,95,0.17,RA,,0.38,WeatherDisplay:10.37,2013-03-08 14:28:00,
2013-03-08 06:33:00,44.4,43.1,29.84,SE,137,1.2,1.2,95,0.17,RA,,0.39,WeatherDisplay:10.37,2013-03-08 14:33:00,
2013-03-08 06:38:00,44.3,43.0,29.84,SE,125,2.3,2.3,95,0.16,RA,,0.40,WeatherDisplay:10.37,2013-03-08 14:38:00,
2013-03-08 06:43:00,44.3,43.0,29.84,SE,139,2.3,2.3,95,0.15,RA,,0.41,WeatherDisplay:10.37,2013-03-08 14:43:00,
2013-03-08 06:48:00,44.3,43.0,29.84,SE,128,1.2,1.2,95,0.13,RA,,0.42,WeatherDisplay:10.37,2013-03-08 14:48:00,
2013-03-08 06:53:00,44.3,43.0,29.84,ESE,117,2.3,2.3,95,0.12,RA,,0.42,WeatherDisplay:10.37,2013-03-08 14:53:00,
2013-03-08 06:58:00,44.3,43.0,29.84,SE,143,2.3,2.3,95,0.11,RA,,0.43,WeatherDisplay:10.37,2013-03-08 14:58:00,
2013-03-08 07:03:00,44.4,43.1,29.85,SE,145,0.0,0.0,95,0.11,RA,,0.44,WeatherDisplay:10.37,2013-03-08 15:03:00,
2013-03-08 07:08:00,44.4,43.1,29.85,SE,131,2.3,2.3,95,0.10,RA,,0.45,WeatherDisplay:10.37,2013-03-08 15:08:00,
2013-03-08 07:13:00,44.4,43.1,29.85,SE,126,1.2,0.0,95,0.10,RA,,0.45,WeatherDisplay:10.37,2013-03-08 15:13:00,
2013-03-08 07:18:00,44.4,43.1,29.85,ESE,120,2.3,2.3,95,0.11,RA,,0.46,WeatherDisplay:10.37,2013-03-08 15:18:00,
2013-03-08 07:23:00,44.4,43.1,29.86,SSE,149,0.0,0.0,95,0.09,RA,,0.46,WeatherDisplay:10.37,2013-03-08 15:23:00,
2013-03-08 07:28:00,44.4,43.1,29.86,SE,135,1.2,0.0,95,0.09,RA,,0.47,WeatherDisplay:10.37,2013-03-08 15:28:00,
2013-03-08 07:33:00,44.5,43.2,29.86,SE,139,1.2,1.2,95,0.08,RA,,0.47,WeatherDisplay:10.37,2013-03-08 15:33:00,
2013-03-08 07:38:00,44.5,43.2,29.86,SE,131,2.3,2.3,95,0.08,RA,,0.48,WeatherDisplay:10.37,2013-03-08 15:38:00,
2013-03-08 07:43:00,44.4,43.1,29.86,SE,125,1.2,0.0,95,0.07,RA,,0.48,WeatherDisplay:10.37,2013-03-08 15:43:00,
2013-03-08 07:48:00,44.3,43.0,29.86,SSE,163,3.5,3.5,95,0.08,RA,,0.49,WeatherDisplay:10.37,2013-03-08 15:48:00,
2013-03-08 07:53:00,43.9,42.3,29.86,ESE,111,3.5,3.5,94,0.07,RA,,0.49,WeatherDisplay:10.37,2013-03-08 15:53:00,
2013-03-08 07:58:00,43.8,42.2,29.87,SE,129,2.3,2.3,94,0.07,RA,,0.50,WeatherDisplay:10.37,2013-03-08 15:58:00,
2013-03-08 08:03:00,43.7,42.1,29.87,ESE,115,2.3,2.3,94,0.06,RA,,0.50,WeatherDisplay:10.37,2013-03-08 16:03:00,
2013-03-08 08:08:00,43.6,42.0,29.87,SE,143,3.5,3.5,94,0.07,RA,,0.51,WeatherDisplay:10.37,2013-03-08 16:08:00,
2013-03-08 08:13:00,43.6,42.0,29.87,SE,131,1.2,1.2,94,0.06,RA,,0.51,WeatherDisplay:10.37,2013-03-08 16:13:00,
2013-03-08 08:18:00,43.7,42.1,29.87,SE,125,1.2,1.2,94,0.05,OVC,,0.51,WeatherDisplay:10.37,2013-03-08 16:18:00,
2013-03-08 08:23:00,43.7,42.1,29.88,SE,128,2.3,2.3,94,0.06,RA,,0.52,WeatherDisplay:10.37,2013-03-08 16:23:00,
2013-03-08 08:28:00,43.7,42.1,29.88,ESE,117,0.0,0.0,94,0.05,RA,,0.52,WeatherDisplay:10.37,2013-03-08 16:28:00,
2013-03-08 08:33:00,43.7,42.1,29.88,ESE,103,2.3,2.3,94,0.05,OVC,,0.52,WeatherDisplay:10.37,2013-03-08 16:33:00,
2013-03-08 08:38:00,43.8,42.2,29.88,ESE,105,1.2,1.2,94,0.05,RA,,0.53,WeatherDisplay:10.37,2013-03-08 16:38:00,
2013-03-08 08:43:00,43.9,42.0,29.88,ESE,117,2.3,2.3,93,0.05,RA,,0.53,WeatherDisplay:10.37,2013-03-08 16:43:00,
2013-03-08 08:48:00,43.9,42.0,29.88,ESE,120,3.5,3.5,93,0.04,OVC,,0.53,WeatherDisplay:10.37,2013-03-08 16:48:00,
2013-03-08 08:53:00,44.0,42.1,29.88,ESE,117,1.2,0.0,93,0.04,OVC,,0.54,WeatherDisplay:10.37,2013-03-08 16:53:00,
2013-03-08 08:58:00,44.1,42.2,29.89,SE,143,1.2,1.2,93,0.04,RA,,0.54,WeatherDisplay:10.37,2013-03-08 16:58:00,
2013-03-08 09:03:00,44.2,42.3,29.89,ESE,120,1.2,1.2,93,0.04,RA,,0.54,WeatherDisplay:10.37,2013-03-08 17:03:00,
2013-03-08 09:08:00,44.2,42.0,29.89,ESE,123,1.2,1.2,92,0.03,OVC,,0.54,WeatherDisplay:10.37,2013-03-08 17:08:00,
2013-03-08 09:13:00,44.2,42.0,29.89,SE,131,1.2,1.2,92,0.04,RA,,0.55,WeatherDisplay:10.37,2013-03-08 17:13:00,
2013-03-08 09:18:00,44.4,42.5,29.89,SE,142,1.2,1.2,93,0.04,RA,,0.55,WeatherDisplay:10.37,2013-03-08 17:18:00,
2013-03-08 09:23:00,44.4,42.2,29.90,SE,132,1.2,1.2,92,0.03,OVC,,0.55,WeatherDisplay:10.37,2013-03-08 17:23:00,
2013-03-08 09:28:00,44.6,42.7,29.90,ESE,117,0.0,0.0,93,0.03,OVC,,0.55,WeatherDisplay:10.37,2013-03-08 17:28:00,
2013-03-08 09:33:00,44.9,43.0,29.90,SE,145,0.0,0.0,93,0.03,OVC,,0.55,WeatherDisplay:10.37,2013-03-08 17:33:00,
2013-03-08 09:38:00,44.9,42.7,29.90,SE,132,0.0,0.1,92,0.02,OVC,,0.55,WeatherDisplay:10.37,2013-03-08 17:38:00,
2013-03-08 09:43:00,44.8,42.3,29.90,SSE,152,2.3,2.3,91,0.02,OVC,,0.55,WeatherDisplay:10.37,2013-03-08 17:43:00,
2013-03-08 09:48:00,44.8,42.3,29.91,ESE,123,1.2,0.0,91,0.02,OVC,,0.55,WeatherDisplay:10.37,2013-03-08 17:48:00,
2013-03-08 09:53:00,44.8,42.6,29.91,SE,136,2.3,2.3,92,0.02,OVC,,0.55,WeatherDisplay:10.37,2013-03-08 17:53:00,
2013-03-08 09:58:00,44.8,42.3,29.91,ESE,115,2.3,2.3,91,0.01,OVC,,0.55,WeatherDisplay:10.37,2013-03-08 17:58:00,
2013-03-08 10:03:00,44.8,42.3,29.91,ESE,122,1.2,0.0,91,0.01,OVC,,0.55,WeatherDisplay:10.37,2013-03-08 18:03:00,
2013-03-08 10:08:00,44.7,41.9,29.91,SE,143,2.3,2.3,90,0.01,OVC,,0.55,WeatherDisplay:10.37,2013-03-08 18:08:00,
2013-03-08 10:13:00,44.7,42.2,29.91,ESE,122,3.5,3.5,91,0.00,OVC,,0.55,WeatherDisplay:10.37,2013-03-08 18:13:00,
2013-03-08 10:18:00,44.8,42.3,29.91,ESE,114,2.3,2.3,91,0.00,OVC,,0.55,WeatherDisplay:10.37,2013-03-08 18:18:00,
2013-03-08 10:23:00,44.8,42.3,29.92,ESE,120,0.0,0.0,91,0.00,OVC,,0.55,WeatherDisplay:10.37,2013-03-08 18:23:00,
2013-03-08 10:28:00,45.0,42.8,29.92,ESE,114,2.3,2.3,92,0.00,OVC,,0.55,WeatherDisplay:10.37,2013-03-08 18:28:00,
2013-03-08 10:33:00,45.0,42.5,29.92,ESE,122,1.2,1.2,91,0.01,RA,,0.56,WeatherDisplay:10.37,2013-03-08 18:33:00,
2013-03-08 10:38:00,45.2,43.0,29.92,SE,126,1.0,1.0,92,0.01,RA,,0.56,WeatherDisplay:10.37,2013-03-08 18:38:00,
2013-03-08 10:43:00,45.3,43.1,29.92,SE,145,1.2,1.2,92,0.01,OVC,,0.56,WeatherDisplay:10.37,2013-03-08 18:43:00,
2013-03-08 10:48:00,45.5,43.3,29.92,East,99,1.2,1.2,92,0.01,OVC,,0.56,WeatherDisplay:10.37,2013-03-08 18:48:00,
2013-03-08 10:53:00,45.7,43.8,29.92,SE,139,1.2,1.2,93,0.01,OVC,,0.56,WeatherDisplay:10.37,2013-03-08 18:53:00,
2013-03-08 10:58:00,45.9,44.0,29.92,ESE,117,1.2,1.2,93,0.01,OVC,,0.56,WeatherDisplay:10.37,2013-03-08 18:58:00,
2013-03-08 11:03:00,46.1,44.2,29.92,SE,146,1.2,1.2,93,0.02,RA,,0.57,WeatherDisplay:10.37,2013-03-08 19:03:00,
2013-03-08 11:08:00,46.3,44.1,29.92,ESE,115,1.2,1.2,92,0.02,RA,,0.57,WeatherDisplay:10.37,2013-03-08 19:08:00,
2013-03-08 11:13:00,46.3,43.8,29.92,SE,125,1.2,1.2,91,0.02,OVC,,0.57,WeatherDisplay:10.37,2013-03-08 19:13:00,
2013-03-08 11:18:00,46.4,43.9,29.92,SSW,201,1.2,1.2,91,0.02,OVC,,0.57,WeatherDisplay:10.37,2013-03-08 19:18:00,
2013-03-08 11:23:00,46.4,43.6,29.92,SE,128,1.2,1.2,90,0.02,OVC,,0.57,WeatherDisplay:10.37,2013-03-08 19:23:00,
2013-03-08 11:28:00,46.2,43.4,29.92,SE,128,1.2,1.2,90,0.02,OVC,,0.57,WeatherDisplay:10.37,2013-03-08 19:28:00,
2013-03-08 11:33:00,46.3,43.8,29.92,SE,136,2.3,2.3,91,0.01,OVC,,0.57,WeatherDisplay:10.37,2013-03-08 19:33:00,
2013-03-08 11:38:00,46.5,44.0,29.92,ESE,111,0.0,0.0,91,0.01,OVC,,0.57,WeatherDisplay:10.37,2013-03-08 19:38:00,
2013-03-08 11:43:00,46.8,44.3,29.92,ESE,120,1.2,0.0,91,0.01,OVC,,0.57,WeatherDisplay:10.37,2013-03-08 19:43:00,
2013-03-08 11:48:00,47.0,44.5,29.92,SE,142,1.2,1.2,91,0.01,OVC,,0.57,WeatherDisplay:10.37,2013-03-08 19:48:00,
2013-03-08 11:53:00,47.0,44.2,29.93,East,100,1.2,1.2,90,0.01,OVC,,0.57,WeatherDisplay:10.37,2013-03-08 19:53:00,
2013-03-08 11:58:00,47.2,44.4,29.93,ENE,77,2.3,2.3,90,0.01,OVC,,0.57,WeatherDisplay:10.37,2013-03-08 19:58:00,
2013-03-08 12:03:00,47.2,43.8,29.93,WSW,240,3.5,3.5,88,0.00,OVC,,0.57,WeatherDisplay:10.37,2013-03-08 20:03:00,
2013-03-08 12:08:00,47.2,43.8,29.93,SW,215,1.2,1.2,88,0.00,OVC,,0.57,WeatherDisplay:10.37,2013-03-08 20:08:00,
2013-03-08 12:13:00,47.3,43.9,29.93,SE,143,1.2,1.2,88,0.00,OVC,,0.57,WeatherDisplay:10.37,2013-03-08 20:13:00,
2013-03-08 12:18:00,47.4,44.0,29.93,SE,132,1.0,1.0,88,0.00,OVC,,0.57,WeatherDisplay:10.37,2013-03-08 20:18:00,
2013-03-08 12:23:00,47.3,43.6,29.93,SW,214,1.2,0.0,87,0.00,OVC,,0.57,WeatherDisplay:10.37,2013-03-08 20:23:00,
2013-03-08 12:28:00,47.3,43.6,29.93,SE,137,1.2,1.2,87,0.00,OVC,,0.57,WeatherDisplay:10.37,2013-03-08 20:28:00,
2013-03-08 12:33:00,47.3,43.3,29.93,SSW,207,1.2,1.2,86,0.00,OVC,,0.57,WeatherDisplay:10.37,2013-03-08 20:33:00,
2013-03-08 12:39:00,47.3,43.6,29.93,SW,224,1.2,1.2,87,0.00,OVC,,0.57,WeatherDisplay:10.37,2013-03-08 20:39:00,
2013-03-08 12:44:00,47.4,44.0,29.92,SE,146,1.2,0.0,88,0.00,OVC,,0.57,WeatherDisplay:10.37,2013-03-08 20:44:00,
2013-03-08 12:49:00,47.4,43.7,29.92,SW,215,1.2,1.2,87,0.00,OVC,,0.57,WeatherDisplay:10.37,2013-03-08 20:49:00,
2013-03-08 12:54:00,47.4,43.7,29.92,SW,228,0.0,0.0,87,0.00,OVC,,0.57,WeatherDisplay:10.37,2013-03-08 20:54:00,
2013-03-08 12:59:00,47.5,44.1,29.92,SSW,212,0.0,0.0,88,0.00,OVC,,0.57,WeatherDisplay:10.37,2013-03-08 20:59:00,
2013-03-08 13:04:00,47.7,44.3,29.92,SSW,201,0.0,0.0,88,0.00,OVC,,0.57,WeatherDisplay:10.37,2013-03-08 21:04:00,
2013-03-08 13:09:00,47.9,44.2,29.92,SW,230,1.2,0.0,87,0.00,OVC,,0.57,WeatherDisplay:10.37,2013-03-08 21:09:00,
2013-03-08 13:14:00,47.7,43.4,29.92,SSW,210,0.0,0.0,85,0.00,OVC,,0.57,WeatherDisplay:10.37,2013-03-08 21:14:00,
2013-03-08 13:19:00,47.7,43.4,29.92,South,181,0.0,0.0,85,0.00,OVC,,0.57,WeatherDisplay:10.37,2013-03-08 21:19:00,
2013-03-08 13:24:00,47.7,44.0,29.92,South,181,0.0,0.0,87,0.00,OVC,,0.57,WeatherDisplay:10.37,2013-03-08 21:24:00,
2013-03-08 13:29:00,47.7,44.3,29.92,SW,226,0.0,0.0,88,0.00,OVC,,0.57,WeatherDisplay:10.37,2013-03-08 21:29:00,
2013-03-08 13:34:00,47.5,44.1,29.92,SE,125,1.2,0.0,88,0.00,OVC,,0.57,WeatherDisplay:10.37,2013-03-08 21:34:00,
2013-03-08 13:39:00,47.5,44.4,29.92,SW,215,1.2,0.0,89,0.00,OVC,,0.57,WeatherDisplay:10.37,2013-03-08 21:39:00,
2013-03-08 13:44:00,47.5,44.7,29.92,SE,126,0.0,0.0,90,0.00,OVC,,0.57,WeatherDisplay:10.37,2013-03-08 21:44:00,
2013-03-08 13:49:00,47.6,45.1,29.92,ESE,122,0.0,0.0,91,0.00,OVC,,0.57,WeatherDisplay:10.37,2013-03-08 21:49:00,
2013-03-08 13:54:00,48.0,45.8,29.92,ESE,123,0.0,0.0,92,0.00,OVC,,0.57,WeatherDisplay:10.37,2013-03-08 21:54:00,
2013-03-08 13:59:00,48.0,45.5,29.92,ESE,122,1.2,1.2,91,0.00,OVC,,0.57,WeatherDisplay:10.37,2013-03-08 21:59:00,
2013-03-08 14:04:00,47.9,45.4,29.92,SE,146,0.0,0.0,91,0.00,OVC,,0.57,WeatherDisplay:10.37,2013-03-08 22:04:00,
2013-03-08 14:09:00,47.9,45.4,29.92,SE,126,3.5,3.5,91,0.00,OVC,,0.57,WeatherDisplay:10.37,2013-03-08 22:09:00,
2013-03-08 14:14:00,47.9,45.4,29.92,SE,132,0.0,0.0,91,0.00,OVC,,0.57,WeatherDisplay:10.37,2013-03-08 22:14:00,
2013-03-08 14:19:00,47.7,44.9,29.92,SE,128,1.2,1.2,90,0.00,OVC,,0.57,WeatherDisplay:10.37,2013-03-08 22:19:00,
2013-03-08 14:24:00,47.6,45.1,29.92,SE,143,1.2,1.2,91,0.00,OVC,,0.57,WeatherDisplay:10.37,2013-03-08 22:24:00,
2013-03-08 14:29:00,47.6,45.1,29.92,ESE,120,2.3,2.3,91,0.00,OVC,,0.57,WeatherDisplay:10.37,2013-03-08 22:29:00,
2013-03-08 14:34:00,47.6,45.1,29.92,SE,125,0.0,0.0,91,0.00,OVC,,0.57,WeatherDisplay:10.37,2013-03-08 22:34:00,
2013-03-08 14:39:00,47.7,45.2,29.92,SE,140,1.2,1.2,91,0.00,OVC,,0.57,WeatherDisplay:10.37,2013-03-08 22:39:00,
2013-03-08 14:44:00,47.7,45.2,29.92,ESE,110,1.2,0.0,91,0.00,OVC,,0.57,WeatherDisplay:10.37,2013-03-08 22:44:00,
2013-03-08 14:49:00,47.8,44.7,29.93,SE,143,2.3,2.3,89,0.00,OVC,,0.57,WeatherDisplay:10.37,2013-03-08 22:49:00,
2013-03-08 14:54:00,47.8,44.7,29.93,ESE,122,1.2,1.2,89,0.00,OVC,,0.57,WeatherDisplay:10.37,2013-03-08 22:54:00,
2013-03-08 14:59:00,47.9,44.8,29.93,ESE,120,2.3,2.3,89,0.00,OVC,,0.57,WeatherDisplay:10.37,2013-03-08 22:59:00,
2013-03-08 15:04:00,47.8,44.7,29.92,SE,132,1.2,0.0,89,0.00,OVC,,0.57,WeatherDisplay:10.37,2013-03-08 23:04:00,
2013-03-08 15:09:00,47.8,44.4,29.92,SE,129,1.2,1.2,88,0.00,OVC,,0.57,WeatherDisplay:10.37,2013-03-08 23:09:00,
2013-03-08 15:14:00,47.9,44.5,29.92,ESE,122,2.0,2.0,88,0.00,OVC,,0.57,WeatherDisplay:10.37,2013-03-08 23:14:00,
2013-03-08 15:19:00,48.0,44.6,29.92,SE,131,1.2,1.2,88,0.00,OVC,,0.57,WeatherDisplay:10.37,2013-03-08 23:19:00,
2013-03-08 15:24:00,48.0,44.6,29.92,ESE,115,2.3,2.3,88,0.00,OVC,,0.57,WeatherDisplay:10.37,2013-03-08 23:24:00,
2013-03-08 15:29:00,48.1,44.7,29.92,SSE,150,0.0,0.0,88,0.00,OVC,,0.57,WeatherDisplay:10.37,2013-03-08 23:29:00,
2013-03-08 15:34:00,48.1,44.4,29.92,SE,132,2.3,2.3,87,0.00,OVC,,0.57,WeatherDisplay:10.37,2013-03-08 23:34:00,
2013-03-08 15:39:00,48.1,44.4,29.92,SE,124,1.2,0.0,87,0.00,OVC,,0.57,WeatherDisplay:10.37,2013-03-08 23:39:00,
2013-03-08 15:44:00,48.1,44.4,29.92,ESE,117,1.2,1.2,87,0.00,OVC,,0.57,WeatherDisplay:10.37,2013-03-08 23:44:00,
2013-03-08 15:49:00,48.1,44.1,29.93,SE,132,1.2,1.2,86,0.00,OVC,,0.57,WeatherDisplay:10.37,2013-03-08 23:49:00,
2013-03-08 15:54:00,48.2,44.2,29.92,SE,136,1.2,0.0,86,0.00,OVC,,0.57,WeatherDisplay:10.37,2013-03-08 23:54:00,
2013-03-08 15:59:00,48.3,44.3,29.92,SE,128,1.2,1.2,86,0.00,OVC,,0.57,WeatherDisplay:10.37,2013-03-08 23:59:00,
2013-03-08 16:04:00,48.3,44.0,29.92,SE,129,0.0,0.0,85,0.00,OVC,,0.57,WeatherDisplay:10.37,2013-03-09 00:04:00,
2013-03-08 16:09:00,48.3,44.3,29.92,SE,143,1.2,1.2,86,0.00,OVC,,0.57,WeatherDisplay:10.37,2013-03-09 00:09:00,
2013-03-08 16:14:00,48.3,44.3,29.93,SE,126,1.2,1.2,86,0.00,OVC,,0.57,WeatherDisplay:10.37,2013-03-09 00:14:00,
2013-03-08 16:19:00,48.2,44.2,29.92,SE,128,1.2,0.0,86,0.00,OVC,,0.57,WeatherDisplay:10.37,2013-03-09 00:19:00,
2013-03-08 16:24:00,48.2,43.9,29.93,SE,131,1.2,0.0,85,0.00,OVC,,0.57,WeatherDisplay:10.37,2013-03-09 00:24:00,
2013-03-08 16:29:00,48.3,44.0,29.92,SE,130,0.0,0.1,85,0.00,OVC,,0.57,WeatherDisplay:10.37,2013-03-09 00:29:00,
2013-03-08 16:34:00,48.4,44.1,29.92,ESE,122,2.0,2.0,85,0.00,OVC,,0.57,WeatherDisplay:10.37,2013-03-09 00:34:00,
2013-03-08 16:39:00,48.5,43.9,29.92,SE,142,1.2,0.0,84,0.00,OVC,,0.57,WeatherDisplay:10.37,2013-03-09 00:39:00,
2013-03-08 16:44:00,48.5,43.9,29.92,SE,128,0.0,0.0,84,0.00,OVC,,0.57,WeatherDisplay:10.37,2013-03-09 00:44:00,
2013-03-08 16:49:00,48.6,44.3,29.92,SE,129,0.0,0.0,85,0.00,OVC,,0.57,WeatherDisplay:10.37,2013-03-09 00:49:00,
2013-03-08 16:54:00,48.6,44.3,29.93,SE,132,1.2,0.0,85,0.00,OVC,,0.57,WeatherDisplay:10.37,2013-03-09 00:54:00,
2013-03-08 16:59:00,48.7,44.4,29.93,SSE,166,0.0,0.0,85,0.00,OVC,,0.57,WeatherDisplay:10.37,2013-03-09 00:59:00,
2013-03-08 17:04:00,48.7,44.4,29.93,South,169,0.0,0.0,85,0.00,OVC,,0.57,WeatherDisplay:10.37,2013-03-09 01:04:00,
2013-03-08 17:09:00,48.8,44.5,29.93,SE,139,0.0,0.0,85,0.00,OVC,,0.57,WeatherDisplay:10.37,2013-03-09 01:09:00,
2013-03-08 17:14:00,48.8,44.5,29.93,SE,143,0.0,0.0,85,0.00,OVC,,0.57,WeatherDisplay:10.37,2013-03-09 01:14:00,
2013-03-08 17:19:00,48.6,44.3,29.93,SE,135,0.0,0.0,85,0.00,OVC,,0.57,WeatherDisplay:10.37,2013-03-09 01:19:00,
2013-03-08 17:24:00,48.5,44.2,29.93,SSW,212,0.0,0.0,85,0.00,OVC,,0.57,WeatherDisplay:10.37,2013-03-09 01:24:00,
2013-03-08 17:29:00,48.3,44.0,29.94,SE,134,0.0,0.0,85,0.00,OVC,,0.57,WeatherDisplay:10.37,2013-03-09 01:29:00,
2013-03-08 17:34:00,48.1,43.5,29.94,SE,134,0.0,0.0,84,0.00,OVC,,0.57,WeatherDisplay:10.37,2013-03-09 01:34:00,
2013-03-08 17:39:00,47.9,43.6,29.94,SE,134,0.0,0.0,85,0.00,OVC,,0.57,WeatherDisplay:10.37,2013-03-09 01:39:00,
2013-03-08 17:44:00,47.7,43.4,29.94,SE,136,0.0,0.0,85,0.00,OVC,,0.57,WeatherDisplay:10.37,2013-03-09 01:44:00,
2013-03-08 17:49:00,47.5,43.5,29.95,SE,136,0.0,0.0,86,0.00,FEW,,0.57,WeatherDisplay:10.37,2013-03-09 01:49:00,
2013-03-08 17:54:00,47.2,43.2,29.95,SE,136,0.0,0.0,86,0.00,FEW,,0.57,WeatherDisplay:10.37,2013-03-09 01:54:00,
2013-03-08 17:59:00,47.0,43.0,29.95,SE,135,0.0,0.0,86,0.00,FEW,,0.57,WeatherDisplay:10.37,2013-03-09 01:59:00,
2013-03-08 18:04:00,46.7,43.0,29.95,SE,135,0.0,0.0,87,0.00,FEW,,0.57,WeatherDisplay:10.37,2013-03-09 02:04:00,
2013-03-08 18:09:00,46.4,42.7,29.95,SE,135,0.0,0.0,87,0.00,FEW,,0.57,WeatherDisplay:10.37,2013-03-09 02:09:00,
2013-03-08 18:14:00,46.0,42.3,29.96,SE,135,0.0,0.0,87,0.00,FEW,,0.57,WeatherDisplay:10.37,2013-03-09 02:14:00,
2013-03-08 18:19:00,45.6,42.0,29.96,SE,135,0.0,0.0,87,0.00,FEW,,0.57,WeatherDisplay:10.37,2013-03-09 02:19:00,
2013-03-08 18:24:00,45.2,41.6,29.96,SE,136,0.0,0.0,87,0.00,FEW,,0.57,WeatherDisplay:10.37,2013-03-09 02:24:00,
2013-03-08 18:29:00,44.8,41.5,29.96,SE,135,0.0,0.0,88,0.00,FEW,,0.57,WeatherDisplay:10.37,2013-03-09 02:29:00,
2013-03-08 18:34:00,44.7,41.9,29.96,SE,135,0.0,0.0,90,0.00,CLR,,0.57,WeatherDisplay:10.37,2013-03-09 02:34:00,
2013-03-08 18:39:00,44.7,41.9,29.96,SE,136,0.0,0.0,90,0.00,CLR,,0.57,WeatherDisplay:10.37,2013-03-09 02:39:00,
2013-03-08 18:44:00,44.3,41.6,29.96,SE,135,0.0,0.0,90,0.00,CLR,,0.57,WeatherDisplay:10.37,2013-03-09 02:44:00,
2013-03-08 18:49:00,44.2,41.7,29.97,SE,135,0.0,0.0,91,0.00,CLR,,0.57,WeatherDisplay:10.37,2013-03-09 02:49:00,
2013-03-08 18:54:00,44.1,41.9,29.97,SE,135,0.0,0.0,92,0.00,CLR,,0.57,WeatherDisplay:10.37,2013-03-09 02:54:00,
2013-03-08 18:59:00,44.1,41.9,29.97,SE,135,0.0,0.0,92,0.00,CLR,,0.57,WeatherDisplay:10.37,2013-03-09 02:59:00,
2013-03-08 19:04:00,43.9,41.7,29.98,SE,135,0.0,0.0,92,0.00,FEW,,0.57,WeatherDisplay:10.37,2013-03-09 03:04:00,
2013-03-08 19:09:00,43.5,41.0,29.98,SE,135,0.0,0.0,91,0.00,FEW,,0.57,WeatherDisplay:10.37,2013-03-09 03:09:00,
2013-03-08 19:14:00,43.3,40.8,29.98,SE,135,0.0,0.0,91,0.00,FEW,,0.57,WeatherDisplay:10.37,2013-03-09 03:14:00,
2013-03-08 19:19:00,43.2,41.3,29.98,SE,135,0.0,0.0,93,0.00,FEW,,0.57,WeatherDisplay:10.37,2013-03-09 03:19:00,
2013-03-08 19:24:00,43.1,40.9,29.99,SE,135,0.0,0.0,92,0.00,FEW,,0.57,WeatherDisplay:10.37,2013-03-09 03:24:00,
2013-03-08 19:29:00,42.9,40.7,29.99,SE,135,0.0,0.0,92,0.00,FEW,,0.57,WeatherDisplay:10.37,2013-03-09 03:29:00,
2013-03-08 19:34:00,42.6,40.4,29.99,SE,135,0.0,0.0,92,0.00,FEW,,0.57,WeatherDisplay:10.37,2013-03-09 03:34:00,
2013-03-08 19:39:00,42.4,40.2,29.99,SE,136,0.0,0.0,92,0.00,FEW,,0.57,WeatherDisplay:10.37,2013-03-09 03:39:00,
2013-03-08 19:44:00,42.4,40.5,29.99,SE,135,0.0,0.0,93,0.00,FEW,,0.57,WeatherDisplay:10.37,2013-03-09 03:44:00,
2013-03-08 19:49:00,42.6,41.0,29.99,SE,135,0.0,0.0,94,0.00,BKN,,0.57,WeatherDisplay:10.37,2013-03-09 03:49:00,
2013-03-08 19:54:00,43.1,41.8,30.00,SE,136,0.0,0.0,95,0.00,BKN,,0.57,WeatherDisplay:10.37,2013-03-09 03:54:00,
2013-03-08 19:59:00,43.6,42.3,30.00,SE,136,0.0,0.0,95,0.00,BKN,,0.57,WeatherDisplay:10.37,2013-03-09 03:59:00,
2013-03-08 20:04:00,43.9,42.6,30.00,SE,135,1.2,1.2,95,0.00,OVC,,0.57,WeatherDisplay:10.37,2013-03-09 04:04:00,
2013-03-08 20:09:00,44.1,42.5,30.00,SE,135,0.0,0.0,94,0.00,OVC,,0.57,WeatherDisplay:10.37,2013-03-09 04:09:00,
2013-03-08 20:14:00,44.3,42.7,30.00,East,99,0.0,0.0,94,0.00,OVC,,0.57,WeatherDisplay:10.37,2013-03-09 04:14:00,
2013-03-08 20:19:00,44.3,42.7,30.01,East,99,0.0,0.0,94,0.00,OVC,,0.57,WeatherDisplay:10.37,2013-03-09 04:19:00,
2013-03-08 20:24:00,44.5,42.9,30.01,East,99,0.0,0.1,94,0.00,OVC,,0.57,WeatherDisplay:10.37,2013-03-09 04:24:00,
2013-03-08 20:29:00,44.6,42.7,30.01,East,99,0.0,0.0,93,0.00,OVC,,0.57,WeatherDisplay:10.37,2013-03-09 04:29:00,
2013-03-08 20:34:00,44.8,42.9,30.01,East,101,1.2,1.2,93,0.00,OVC,,0.57,WeatherDisplay:10.37,2013-03-09 04:34:00,
2013-03-08 20:39:00,44.9,43.0,30.01,ESE,102,0.0,0.1,93,0.00,OVC,,0.57,WeatherDisplay:10.37,2013-03-09 04:39:00,
2013-03-08 20:44:00,45.1,42.9,30.01,East,101,0.0,0.0,92,0.00,OVC,,0.57,WeatherDisplay:10.37,2013-03-09 04:44:00,
2013-03-08 20:49:00,45.2,43.0,30.01,ESE,102,1.2,0.0,92,0.00,OVC,,0.57,WeatherDisplay:10.37,2013-03-09 04:49:00,
2013-03-08 20:54:00,45.3,43.1,30.01,East,101,0.0,0.0,92,0.00,OVC,,0.57,WeatherDisplay:10.37,2013-03-09 04:54:00,
2013-03-08 20:59:00,45.4,43.2,30.01,ESE,102,0.0,0.0,92,0.00,OVC,,0.57,WeatherDisplay:10.37,2013-03-09 04:59:00,
2013-03-08 21:00:00,45.5,43.3,30.01,ESE,102,0.0,0.0,92,0.00,OVC,,0.57,WeatherDisplay:10.37,2013-03-09 05:00:00,
2013-03-08 21:01:00,45.5,43.3,30.01,East,101,0.0,0.0,92,0.00,OVC,,0.57,WeatherDisplay:10.37,2013-03-09 05:01:00,
2013-03-08 21:06:00,45.6,43.1,30.01,East,101,0.0,0.0,91,0.00,OVC,,0.57,WeatherDisplay:10.37,2013-03-09 05:06:00,
2013-03-08 21:11:00,45.7,43.2,30.02,East,101,0.0,0.0,91,0.00,OVC,,0.57,WeatherDisplay:10.37,2013-03-09 05:11:00,
2013-03-08 21:16:00,45.8,43.3,30.02,SW,231,0.0,0.0,91,0.00,OVC,,0.57,WeatherDisplay:10.37,2013-03-09 05:16:00,
2013-03-08 21:21:00,45.9,43.1,30.02,SW,232,0.0,0.0,90,0.00,OVC,,0.57,WeatherDisplay:10.37,2013-03-09 05:21:00,
2013-03-08 21:26:00,46.0,43.2,30.02,SW,232,0.0,0.0,90,0.00,OVC,,0.57,WeatherDisplay:10.37,2013-03-09 05:26:00,
2013-03-08 21:31:00,46.0,42.9,30.03,SSW,207,1.2,0.0,89,0.00,OVC,,0.57,WeatherDisplay:10.37,2013-03-09 05:31:00,
2013-03-08 21:36:00,46.1,43.0,30.03,West,259,0.0,0.0,89,0.00,OVC,,0.57,WeatherDisplay:10.37,2013-03-09 05:36:00,
2013-03-08 21:41:00,46.1,43.3,30.03,WSW,258,0.0,0.0,90,0.00,OVC,,0.57,WeatherDisplay:10.37,2013-03-09 05:41:00,
2013-03-08 21:46:00,46.1,43.0,30.03,WSW,258,0.0,0.0,89,0.00,OVC,,0.57,WeatherDisplay:10.37,2013-03-09 05:46:00,
2013-03-08 21:51:00,46.1,43.0,30.03,West,259,0.0,0.0,89,0.00,OVC,,0.57,WeatherDisplay:10.37,2013-03-09 05:51:00,
2013-03-08 21:56:00,46.1,43.3,30.03,West,259,1.2,1.2,90,0.00,OVC,,0.57,WeatherDisplay:10.37,2013-03-09 05:56:00,
2013-03-08 22:01:00,46.1,43.3,30.03,West,259,0.0,0.0,90,0.00,OVC,,0.57,WeatherDisplay:10.37,2013-03-09 06:01:00,
2013-03-08 22:06:00,46.1,43.3,30.03,West,259,0.0,0.0,90,0.00,OVC,,0.57,WeatherDisplay:10.37,2013-03-09 06:06:00,
2013-03-08 22:11:00,46.1,43.6,30.04,WSW,258,0.0,0.0,91,0.00,OVC,,0.57,WeatherDisplay:10.37,2013-03-09 06:11:00,
2013-03-08 22:16:00,46.2,43.7,30.04,NNW,342,2.3,2.3,91,0.00,OVC,,0.57,WeatherDisplay:10.37,2013-03-09 06:16:00,
2013-03-08 22:21:00,46.2,43.7,30.04,NNW,327,0.0,0.0,91,0.00,OVC,,0.57,WeatherDisplay:10.37,2013-03-09 06:21:00,
2013-03-08 22:26:00,46.2,43.4,30.04,NNW,328,0.0,0.0,90,0.00,OVC,,0.57,WeatherDisplay:10.37,2013-03-09 06:26:00,
2013-03-08 22:31:00,46.2,43.7,30.04,NNW,328,0.0,0.0,91,0.00,OVC,,0.57,WeatherDisplay:10.37,2013-03-09 06:31:00,
2013-03-08 22:36:00,46.2,43.7,30.04,NNW,328,0.0,0.0,91,0.01,RA,,0.58,WeatherDisplay:10.37,2013-03-09 06:36:00,
2013-03-08 22:41:00,46.2,44.0,30.05,NNW,328,0.0,0.0,92,0.02,RA,,0.59,WeatherDisplay:10.37,2013-03-09 06:41:00,
2013-03-08 22:46:00,46.2,44.0,30.05,NNW,328,0.0,0.0,92,0.02,RA,,0.59,WeatherDisplay:10.37,2013-03-09 06:46:00,
2013-03-08 22:51:00,46.1,44.2,30.05,NNW,328,0.0,0.0,93,0.02,OVC,,0.59,WeatherDisplay:10.37,2013-03-09 06:51:00,
2013-03-08 22:56:00,46.1,44.2,30.04,NNW,328,0.0,0.0,93,0.03,RA,,0.60,WeatherDisplay:10.37,2013-03-09 06:56:00,
2013-03-08 23:01:00,46.1,44.2,30.04,NNW,327,0.0,0.0,93,0.03,RA,,0.60,WeatherDisplay:10.37,2013-03-09 07:01:00,
2013-03-08 23:06:00,46.0,44.1,30.04,NNW,328,0.0,0.0,93,0.03,OVC,,0.60,WeatherDisplay:10.37,2013-03-09 07:06:00,
2013-03-08 23:11:00,46.0,44.1,30.04,NNW,328,0.0,0.0,93,0.04,RA,,0.61,WeatherDisplay:10.37,2013-03-09 07:11:00,
2013-03-08 23:16:00,46.0,44.1,30.04,NNW,328,0.0,0.0,93,0.04,RA,,0.61,WeatherDisplay:10.37,2013-03-09 07:16:00,
2013-03-08 23:21:00,46.0,44.4,30.04,NNW,329,0.0,0.0,94,0.04,OVC,,0.61,WeatherDisplay:10.37,2013-03-09 07:21:00,
2013-03-08 23:26:00,45.9,44.3,30.05,NNW,328,0.0,0.0,94,0.04,OVC,,0.61,WeatherDisplay:10.37,2013-03-09 07:26:00,
2013-03-08 23:31:00,45.8,44.2,30.05,NNW,329,0.0,0.0,94,0.04,OVC,,0.61,WeatherDisplay:10.37,2013-03-09 07:31:00,
2013-03-08 23:36:00,45.7,44.1,30.04,NNW,328,0.0,0.0,94,0.03,OVC,,0.61,WeatherDisplay:10.37,2013-03-09 07:36:00,
2013-03-08 23:41:00,45.7,44.1,30.05,NNW,328,0.0,0.0,94,0.02,OVC,,0.61,WeatherDisplay:10.37,2013-03-09 07:41:00,
2013-03-08 23:46:00,45.7,44.1,30.05,NNW,328,0.0,0.0,94,0.02,OVC,,0.61,WeatherDisplay:10.37,2013-03-09 07:46:00,
2013-03-08 23:51:00,45.6,44.0,30.05,NNW,328,0.0,0.0,94,0.02,OVC,,0.61,WeatherDisplay:10.37,2013-03-09 07:51:00,
2013-03-08 23:56:00,45.6,44.0,30.05,NNW,328,0.0,0.0,94,0.01,OVC,,0.61,WeatherDisplay:10.37,2013-03-09 07:56:00,